Asheboro, NC (27203)

3:04 PM EDT on April 28, 2017 (GMT -0400)
Windsor Park | | Change Station

Elev 673 ft 35.76 °N, 79.79 °W | Updated 28 seconds ago

Partly Cloudy
Partly Cloudy
82.8 °F
Feels Like 87 °F
N
0.9
Wind Variable Wind from South
Gusts 2.5 mph

Today
High -- | Low -- °F
--% Chance of Precip.
Yesterday
High -- | Low -- °F
Precip. -- in
Pressure 30.10 in
Visibility 10.0 miles
Clouds Scattered Clouds 3200 ft
Scattered Clouds 4200 ft
Scattered Clouds 10000 ft
Heat Index 87 °F
Dew Point 70 °F
Humidity 65%
Rainfall 0.00 in
Snow Depth Not available.
6:30 AM 8:03 PM
Waxing Crescent, 8% visible
METAR KHBI 281910Z AUTO 17007KT 10SM SCT032 SCT042 SCT100 27/20 A3010 RMK AO2 T02700195
Pressure 30.10 in
Visibility 10.0 miles
Clouds Scattered Clouds 3200 ft
Scattered Clouds 4200 ft
Scattered Clouds 10000 ft
Heat Index 87 °F
Dew Point 70 °F
Humidity 65%
Rainfall 0.00 in
Snow Depth Not available.
6:30 AM 8:03 PM
Waxing Crescent, 8% visible
METAR KHBI 281910Z AUTO 17007KT 10SM SCT032 SCT042 SCT100 27/20 A3010 RMK AO2 T02700195

Get Severe Weather Alerts

Thanks for signing up!

Be on the lookout for a verification email in your inbox.

You'll start receiving the daily forecast at 8 AM.

×

10-Day Weather Forecast

Almanac

Astronomy

Apr. 28, 2017 Rise Set
Actual Time
Civil Twilight
Nautical Twilight
Astronomical Twilight
Moon
Length of Visible Light
Length of Day
Tomorrow will be .
, % of the Moon is Illuminated

Today's Extremes

State Highs State Lows

Community

WunderPhotos

WunderBlog® & News

Nearby

Air Quality

  Air Quality AQ Index Pollutant
Not available.

Snow Depth

Station Depth Elevation

Earthquake Activity

City Distance Mag. Time & Date
Minimum magnitude displayed is 2.5.

Coastal Water Temperatures

Place Temperature

Stations

Nearby Weather Stations

Station Location Temp. Windchill Dew Point Humidity Wind Precip. Elev Updated Type
                   

Watches & Warnings

There are currently no watches in effect.